sensor_id;sensor_type;location;lat;lon;timestamp;P1;durP1;ratioP1;P2;durP2;ratioP2
36185;SDS011;22228;53.222;7.446;2022-11-15T00:01:39;31.47;;;25.80;;
36185;SDS011;22228;53.222;7.446;2022-11-15T00:04:18;32.40;;;26.67;;
36185;SDS011;22228;53.222;7.446;2022-11-15T00:07:01;32.27;;;25.97;;
36185;SDS011;22228;53.222;7.446;2022-11-15T00:09:41;28.33;;;24.17;;
36185;SDS011;22228;53.222;7.446;2022-11-15T00:12:24;31.90;;;24.50;;
36185;SDS011;22228;53.222;7.446;2022-11-15T00:15:07;31.33;;;24.97;;
36185;SDS011;22228;53.222;7.446;2022-11-15T00:17:48;30.70;;;23.80;;
36185;SDS011;22228;53.222;7.446;2022-11-15T00:20:27;31.27;;;25.40;;
36185;SDS011;22228;53.222;7.446;2022-11-15T00:23:10;29.67;;;25.43;;
36185;SDS011;22228;53.222;7.446;2022-11-15T00:25:54;30.57;;;24.23;;
36185;SDS011;22228;53.222;7.446;2022-11-15T00:28:35;30.20;;;24.57;;
36185;SDS011;22228;53.222;7.446;2022-11-15T00:31:20;29.23;;;24.27;;
36185;SDS011;22228;53.222;7.446;2022-11-15T00:34:00;32.50;;;25.30;;
36185;SDS011;22228;53.222;7.446;2022-11-15T00:36:46;29.57;;;23.87;;
36185;SDS011;22228;53.222;7.446;2022-11-15T00:39:28;35.37;;;27.07;;
36185;SDS011;22228;53.222;7.446;2022-11-15T00:42:14;34.03;;;25.70;;
36185;SDS011;22228;53.222;7.446;2022-11-15T00:45:00;31.57;;;24.37;;
36185;SDS011;22228;53.222;7.446;2022-11-15T00:47:41;35.60;;;25.67;;
36185;SDS011;22228;53.222;7.446;2022-11-15T00:50:24;31.67;;;24.90;;
36185;SDS011;22228;53.222;7.446;2022-11-15T00:53:03;33.23;;;26.17;;
36185;SDS011;22228;53.222;7.446;2022-11-15T00:55:48;32.20;;;25.27;;
36185;SDS011;22228;53.222;7.446;2022-11-15T00:58:28;34.53;;;26.87;;
36185;SDS011;22228;53.222;7.446;2022-11-15T01:01:09;35.60;;;26.83;;
36185;SDS011;22228;53.222;7.446;2022-11-15T01:03:58;32.93;;;26.50;;
36185;SDS011;22228;53.222;7.446;2022-11-15T01:06:38;36.63;;;27.27;;
36185;SDS011;22228;53.222;7.446;2022-11-15T01:09:25;37.67;;;27.67;;
36185;SDS011;22228;53.222;7.446;2022-11-15T01:18:47;35.40;;;27.50;;
36185;SDS011;22228;53.222;7.446;2022-11-15T01:21:29;36.03;;;26.30;;
36185;SDS011;22228;53.222;7.446;2022-11-15T01:24:09;34.60;;;26.10;;
36185;SDS011;22228;53.222;7.446;2022-11-15T01:26:57;32.70;;;25.70;;
36185;SDS011;22228;53.222;7.446;2022-11-15T01:29:38;34.40;;;25.87;;
36185;SDS011;22228;53.222;7.446;2022-11-15T01:32:19;35.17;;;26.70;;
36185;SDS011;22228;53.222;7.446;2022-11-15T01:35:05;38.23;;;27.60;;
36185;SDS011;22228;53.222;7.446;2022-11-15T01:37:46;40.10;;;29.27;;
36185;SDS011;22228;53.222;7.446;2022-11-15T01:40:50;38.60;;;29.93;;
36185;SDS011;22228;53.222;7.446;2022-11-15T01:43:33;41.77;;;29.97;;
36185;SDS011;22228;53.222;7.446;2022-11-15T01:46:19;42.67;;;29.20;;
36185;SDS011;22228;53.222;7.446;2022-11-15T01:49:05;39.70;;;28.90;;
36185;SDS011;22228;53.222;7.446;2022-11-15T01:51:52;45.70;;;31.03;;
36185;SDS011;22228;53.222;7.446;2022-11-15T01:54:33;39.57;;;29.53;;
36185;SDS011;22228;53.222;7.446;2022-11-15T01:57:19;41.37;;;29.23;;
36185;SDS011;22228;53.222;7.446;2022-11-15T02:00:06;45.13;;;31.50;;
36185;SDS011;22228;53.222;7.446;2022-11-15T02:02:53;45.00;;;32.33;;
36185;SDS011;22228;53.222;7.446;2022-11-15T02:05:36;44.43;;;30.40;;
36185;SDS011;22228;53.222;7.446;2022-11-15T02:08:22;44.27;;;30.33;;
36185;SDS011;22228;53.222;7.446;2022-11-15T02:11:04;46.33;;;32.17;;
36185;SDS011;22228;53.222;7.446;2022-11-15T02:13:44;45.90;;;31.53;;
36185;SDS011;22228;53.222;7.446;2022-11-15T02:16:39;45.87;;;31.97;;
36185;SDS011;22228;53.222;7.446;2022-11-15T02:19:29;43.87;;;31.23;;
36185;SDS011;22228;53.222;7.446;2022-11-15T02:22:35;42.63;;;31.43;;
36185;SDS011;22228;53.222;7.446;2022-11-15T02:25:39;45.10;;;31.93;;
36185;SDS011;22228;53.222;7.446;2022-11-15T02:28:33;46.07;;;32.23;;
36185;SDS011;22228;53.222;7.446;2022-11-15T02:31:29;42.37;;;29.50;;
36185;SDS011;22228;53.222;7.446;2022-11-15T02:34:22;44.83;;;32.00;;
36185;SDS011;22228;53.222;7.446;2022-11-15T02:37:09;43.00;;;30.60;;
36185;SDS011;22228;53.222;7.446;2022-11-15T02:39:59;41.70;;;31.80;;
36185;SDS011;22228;53.222;7.446;2022-11-15T02:42:48;40.13;;;30.97;;
36185;SDS011;22228;53.222;7.446;2022-11-15T02:45:58;40.53;;;29.13;;
36185;SDS011;22228;53.222;7.446;2022-11-15T02:48:45;39.87;;;30.20;;
36185;SDS011;22228;53.222;7.446;2022-11-15T02:51:32;40.93;;;30.00;;
36185;SDS011;22228;53.222;7.446;2022-11-15T02:54:14;39.23;;;28.60;;
36185;SDS011;22228;53.222;7.446;2022-11-15T02:56:58;39.40;;;28.50;;
36185;SDS011;22228;53.222;7.446;2022-11-15T02:59:51;41.73;;;30.23;;
36185;SDS011;22228;53.222;7.446;2022-11-15T03:02:52;38.50;;;28.23;;
36185;SDS011;22228;53.222;7.446;2022-11-15T03:05:50;38.20;;;28.67;;
36185;SDS011;22228;53.222;7.446;2022-11-15T03:08:37;36.70;;;27.20;;
36185;SDS011;22228;53.222;7.446;2022-11-15T03:11:28;38.23;;;29.57;;
36185;SDS011;22228;53.222;7.446;2022-11-15T03:14:19;36.63;;;27.97;;
36185;SDS011;22228;53.222;7.446;2022-11-15T03:17:09;38.17;;;27.70;;
36185;SDS011;22228;53.222;7.446;2022-11-15T03:19:55;34.63;;;26.73;;
36185;SDS011;22228;53.222;7.446;2022-11-15T03:22:40;35.00;;;26.23;;
36185;SDS011;22228;53.222;7.446;2022-11-15T03:25:24;35.00;;;26.27;;
36185;SDS011;22228;53.222;7.446;2022-11-15T03:28:31;34.87;;;26.53;;
36185;SDS011;22228;53.222;7.446;2022-11-15T03:31:40;36.97;;;27.03;;
36185;SDS011;22228;53.222;7.446;2022-11-15T03:34:28;36.30;;;26.10;;
36185;SDS011;22228;53.222;7.446;2022-11-15T03:37:11;34.00;;;26.33;;
36185;SDS011;22228;53.222;7.446;2022-11-15T03:40:01;35.83;;;25.43;;
36185;SDS011;22228;53.222;7.446;2022-11-15T03:42:46;32.87;;;26.03;;
36185;SDS011;22228;53.222;7.446;2022-11-15T03:46:01;32.97;;;24.30;;
36185;SDS011;22228;53.222;7.446;2022-11-15T03:48:49;36.30;;;26.07;;
36185;SDS011;22228;53.222;7.446;2022-11-15T03:51:31;32.27;;;23.77;;
36185;SDS011;22228;53.222;7.446;2022-11-15T03:54:08;32.30;;;25.27;;
36185;SDS011;22228;53.222;7.446;2022-11-15T03:56:58;34.07;;;24.20;;
36185;SDS011;22228;53.222;7.446;2022-11-15T03:59:37;33.83;;;25.43;;
36185;SDS011;22228;53.222;7.446;2022-11-15T04:02:17;33.50;;;24.63;;
36185;SDS011;22228;53.222;7.446;2022-11-15T04:04:57;34.00;;;26.07;;
36185;SDS011;22228;53.222;7.446;2022-11-15T04:07:44;33.17;;;25.47;;
36185;SDS011;22228;53.222;7.446;2022-11-15T04:10:30;35.60;;;25.53;;
36185;SDS011;22228;53.222;7.446;2022-11-15T04:13:18;33.23;;;25.10;;
36185;SDS011;22228;53.222;7.446;2022-11-15T04:15:57;34.63;;;26.00;;
36185;SDS011;22228;53.222;7.446;2022-11-15T04:18:43;34.90;;;25.87;;
36185;SDS011;22228;53.222;7.446;2022-11-15T04:21:50;31.03;;;24.80;;
36185;SDS011;22228;53.222;7.446;2022-11-15T04:27:56;41.23;;;27.60;;
36185;SDS011;22228;53.222;7.446;2022-11-15T04:30:45;33.97;;;25.00;;
36185;SDS011;22228;53.222;7.446;2022-11-15T04:33:27;36.77;;;25.93;;
36185;SDS011;22228;53.222;7.446;2022-11-15T04:36:07;36.50;;;25.73;;
36185;SDS011;22228;53.222;7.446;2022-11-15T04:39:11;32.67;;;24.33;;
36185;SDS011;22228;53.222;7.446;2022-11-15T04:41:51;32.37;;;24.50;;
36185;SDS011;22228;53.222;7.446;2022-11-15T04:44:32;32.67;;;24.60;;
36185;SDS011;22228;53.222;7.446;2022-11-15T04:47:12;36.40;;;25.57;;
36185;SDS011;22228;53.222;7.446;2022-11-15T04:49:54;34.53;;;25.80;;
36185;SDS011;22228;53.222;7.446;2022-11-15T04:52:39;34.73;;;24.87;;
36185;SDS011;22228;53.222;7.446;2022-11-15T04:55:20;36.00;;;25.17;;
36185;SDS011;22228;53.222;7.446;2022-11-15T04:58:06;32.40;;;24.63;;
36185;SDS011;22228;53.222;7.446;2022-11-15T05:00:48;36.40;;;26.10;;
36185;SDS011;22228;53.222;7.446;2022-11-15T05:03:31;37.33;;;26.47;;
36185;SDS011;22228;53.222;7.446;2022-11-15T05:06:28;37.57;;;26.53;;
36185;SDS011;22228;53.222;7.446;2022-11-15T05:09:08;37.70;;;25.63;;
36185;SDS011;22228;53.222;7.446;2022-11-15T05:11:52;38.23;;;26.20;;
36185;SDS011;22228;53.222;7.446;2022-11-15T05:14:31;33.93;;;24.67;;
36185;SDS011;22228;53.222;7.446;2022-11-15T05:17:17;36.93;;;25.17;;
36185;SDS011;22228;53.222;7.446;2022-11-15T05:20:05;36.20;;;26.33;;
36185;SDS011;22228;53.222;7.446;2022-11-15T05:22:49;38.03;;;26.37;;
36185;SDS011;22228;53.222;7.446;2022-11-15T05:25:30;35.53;;;24.80;;
36185;SDS011;22228;53.222;7.446;2022-11-15T05:28:09;38.70;;;26.47;;
36185;SDS011;22228;53.222;7.446;2022-11-15T05:30:49;41.80;;;26.90;;
36185;SDS011;22228;53.222;7.446;2022-11-15T05:33:31;39.53;;;27.17;;
36185;SDS011;22228;53.222;7.446;2022-11-15T05:36:15;36.93;;;25.67;;
36185;SDS011;22228;53.222;7.446;2022-11-15T05:38:58;37.53;;;25.20;;
36185;SDS011;22228;53.222;7.446;2022-11-15T05:41:39;36.13;;;27.07;;
36185;SDS011;22228;53.222;7.446;2022-11-15T05:44:27;40.10;;;27.13;;
36185;SDS011;22228;53.222;7.446;2022-11-15T05:47:14;41.57;;;28.17;;
36185;SDS011;22228;53.222;7.446;2022-11-15T05:50:01;37.77;;;26.97;;
36185;SDS011;22228;53.222;7.446;2022-11-15T05:59:03;36.57;;;26.93;;
36185;SDS011;22228;53.222;7.446;2022-11-15T06:02:07;45.53;;;28.30;;
36185;SDS011;22228;53.222;7.446;2022-11-15T06:04:54;42.37;;;27.50;;
36185;SDS011;22228;53.222;7.446;2022-11-15T06:07:35;45.40;;;26.80;;
36185;SDS011;22228;53.222;7.446;2022-11-15T06:10:16;38.20;;;27.37;;
36185;SDS011;22228;53.222;7.446;2022-11-15T06:12:57;39.30;;;27.00;;
36185;SDS011;22228;53.222;7.446;2022-11-15T06:16:07;45.20;;;28.53;;
36185;SDS011;22228;53.222;7.446;2022-11-15T06:18:50;40.43;;;25.93;;
36185;SDS011;22228;53.222;7.446;2022-11-15T06:21:31;38.93;;;25.73;;
36185;SDS011;22228;53.222;7.446;2022-11-15T06:24:16;42.37;;;27.93;;
36185;SDS011;22228;53.222;7.446;2022-11-15T06:26:58;42.00;;;27.30;;
36185;SDS011;22228;53.222;7.446;2022-11-15T06:30:03;42.00;;;26.80;;
36185;SDS011;22228;53.222;7.446;2022-11-15T06:32:43;43.30;;;26.83;;
36185;SDS011;22228;53.222;7.446;2022-11-15T06:35:30;44.90;;;28.90;;
36185;SDS011;22228;53.222;7.446;2022-11-15T06:38:12;47.30;;;27.83;;
36185;SDS011;22228;53.222;7.446;2022-11-15T06:41:00;46.70;;;28.50;;
36185;SDS011;22228;53.222;7.446;2022-11-15T06:43:42;50.30;;;28.10;;
36185;SDS011;22228;53.222;7.446;2022-11-15T06:49:52;46.30;;;28.50;;
36185;SDS011;22228;53.222;7.446;2022-11-15T06:52:32;36.87;;;26.37;;
36185;SDS011;22228;53.222;7.446;2022-11-15T06:55:12;44.17;;;26.73;;
36185;SDS011;22228;53.222;7.446;2022-11-15T06:57:55;40.93;;;27.07;;
36185;SDS011;22228;53.222;7.446;2022-11-15T07:00:37;40.37;;;25.90;;
36185;SDS011;22228;53.222;7.446;2022-11-15T07:03:23;44.97;;;26.93;;
36185;SDS011;22228;53.222;7.446;2022-11-15T07:06:03;37.97;;;26.23;;
36185;SDS011;22228;53.222;7.446;2022-11-15T07:08:49;39.10;;;25.93;;
36185;SDS011;22228;53.222;7.446;2022-11-15T07:11:35;41.87;;;25.83;;
36185;SDS011;22228;53.222;7.446;2022-11-15T07:14:16;41.63;;;25.13;;
36185;SDS011;22228;53.222;7.446;2022-11-15T07:16:57;41.90;;;25.67;;
36185;SDS011;22228;53.222;7.446;2022-11-15T07:19:36;36.60;;;25.27;;
36185;SDS011;22228;53.222;7.446;2022-11-15T07:22:19;37.47;;;25.40;;
36185;SDS011;22228;53.222;7.446;2022-11-15T07:24:59;33.40;;;24.13;;
36185;SDS011;22228;53.222;7.446;2022-11-15T07:27:39;39.50;;;24.30;;
36185;SDS011;22228;53.222;7.446;2022-11-15T07:30:25;33.50;;;24.60;;
36185;SDS011;22228;53.222;7.446;2022-11-15T07:33:33;32.03;;;21.93;;
36185;SDS011;22228;53.222;7.446;2022-11-15T07:39:44;34.53;;;23.63;;
36185;SDS011;22228;53.222;7.446;2022-11-15T07:42:24;36.73;;;24.33;;
36185;SDS011;22228;53.222;7.446;2022-11-15T07:45:27;30.93;;;23.17;;
36185;SDS011;22228;53.222;7.446;2022-11-15T07:51:17;32.30;;;22.97;;
36185;SDS011;22228;53.222;7.446;2022-11-15T07:53:57;32.40;;;23.03;;
36185;SDS011;22228;53.222;7.446;2022-11-15T07:56:37;33.50;;;22.70;;
36185;SDS011;22228;53.222;7.446;2022-11-15T07:59:16;29.00;;;21.40;;
36185;SDS011;22228;53.222;7.446;2022-11-15T08:01:57;30.43;;;22.70;;
36185;SDS011;22228;53.222;7.446;2022-11-15T08:04:43;27.00;;;21.03;;
36185;SDS011;22228;53.222;7.446;2022-11-15T08:07:24;30.40;;;22.27;;
36185;SDS011;22228;53.222;7.446;2022-11-15T08:10:03;27.60;;;21.00;;
36185;SDS011;22228;53.222;7.446;2022-11-15T08:12:45;28.87;;;20.97;;
36185;SDS011;22228;53.222;7.446;2022-11-15T08:15:32;27.70;;;20.90;;
36185;SDS011;22228;53.222;7.446;2022-11-15T08:18:13;27.47;;;20.70;;
36185;SDS011;22228;53.222;7.446;2022-11-15T08:21:03;27.00;;;20.17;;
36185;SDS011;22228;53.222;7.446;2022-11-15T08:24:08;25.63;;;20.53;;
36185;SDS011;22228;53.222;7.446;2022-11-15T08:26:49;25.17;;;20.50;;
36185;SDS011;22228;53.222;7.446;2022-11-15T08:32:45;25.77;;;20.73;;
36185;SDS011;22228;53.222;7.446;2022-11-15T08:35:25;26.60;;;20.87;;
36185;SDS011;22228;53.222;7.446;2022-11-15T08:41:18;24.03;;;20.27;;
36185;SDS011;22228;53.222;7.446;2022-11-15T08:44:06;25.40;;;20.37;;
36185;SDS011;22228;53.222;7.446;2022-11-15T08:46:50;26.67;;;20.60;;
36185;SDS011;22228;53.222;7.446;2022-11-15T08:49:30;27.97;;;19.70;;
36185;SDS011;22228;53.222;7.446;2022-11-15T08:52:10;28.63;;;20.90;;
36185;SDS011;22228;53.222;7.446;2022-11-15T08:54:51;24.43;;;18.97;;
36185;SDS011;22228;53.222;7.446;2022-11-15T08:57:31;23.60;;;20.27;;
36185;SDS011;22228;53.222;7.446;2022-11-15T09:00:11;22.47;;;17.97;;
36185;SDS011;22228;53.222;7.446;2022-11-15T09:02:52;21.53;;;18.37;;
36185;SDS011;22228;53.222;7.446;2022-11-15T09:05:31;25.40;;;19.87;;
36185;SDS011;22228;53.222;7.446;2022-11-15T09:08:12;23.27;;;19.33;;
36185;SDS011;22228;53.222;7.446;2022-11-15T09:10:54;24.83;;;20.33;;
36185;SDS011;22228;53.222;7.446;2022-11-15T09:13:39;21.90;;;18.60;;
36185;SDS011;22228;53.222;7.446;2022-11-15T09:16:23;26.47;;;19.87;;
36185;SDS011;22228;53.222;7.446;2022-11-15T09:22:13;21.40;;;17.70;;
36185;SDS011;22228;53.222;7.446;2022-11-15T09:24:52;26.37;;;18.10;;
36185;SDS011;22228;53.222;7.446;2022-11-15T09:30:38;21.00;;;17.50;;
36185;SDS011;22228;53.222;7.446;2022-11-15T09:33:23;19.93;;;16.63;;
36185;SDS011;22228;53.222;7.446;2022-11-15T09:36:29;19.57;;;16.97;;
36185;SDS011;22228;53.222;7.446;2022-11-15T09:39:15;21.43;;;17.10;;
36185;SDS011;22228;53.222;7.446;2022-11-15T09:41:58;18.43;;;16.53;;
36185;SDS011;22228;53.222;7.446;2022-11-15T09:48:15;22.80;;;16.47;;
36185;SDS011;22228;53.222;7.446;2022-11-15T09:51:24;17.27;;;14.60;;
36185;SDS011;22228;53.222;7.446;2022-11-15T09:56:43;18.90;;;15.67;;
36185;SDS011;22228;53.222;7.446;2022-11-15T09:59:34;16.90;;;14.93;;
36185;SDS011;22228;53.222;7.446;2022-11-15T10:02:09;18.83;;;14.80;;
36185;SDS011;22228;53.222;7.446;2022-11-15T10:04:43;18.23;;;15.37;;
36185;SDS011;22228;53.222;7.446;2022-11-15T10:07:06;17.40;;;15.57;;
36185;SDS011;22228;53.222;7.446;2022-11-15T10:09:49;19.53;;;15.77;;
36185;SDS011;22228;53.222;7.446;2022-11-15T10:12:21;18.77;;;15.47;;
36185;SDS011;22228;53.222;7.446;2022-11-15T10:14:45;18.70;;;16.33;;
36185;SDS011;22228;53.222;7.446;2022-11-15T10:17:21;18.07;;;15.17;;
36185;SDS011;22228;53.222;7.446;2022-11-15T10:20:08;19.37;;;17.13;;
36185;SDS011;22228;53.222;7.446;2022-11-15T10:22:38;21.37;;;18.47;;
36185;SDS011;22228;53.222;7.446;2022-11-15T10:25:21;21.53;;;18.60;;
36185;SDS011;22228;53.222;7.446;2022-11-15T10:27:44;22.10;;;18.33;;
36185;SDS011;22228;53.222;7.446;2022-11-15T10:30:14;19.57;;;16.87;;
36185;SDS011;22228;53.222;7.446;2022-11-15T10:32:39;19.27;;;16.47;;
36185;SDS011;22228;53.222;7.446;2022-11-15T10:35:12;20.73;;;17.00;;
36185;SDS011;22228;53.222;7.446;2022-11-15T10:37:41;19.07;;;16.60;;
36185;SDS011;22228;53.222;7.446;2022-11-15T10:40:28;19.07;;;16.90;;
36185;SDS011;22228;53.222;7.446;2022-11-15T10:43:05;20.10;;;17.43;;
36185;SDS011;22228;53.222;7.446;2022-11-15T10:45:35;17.80;;;15.90;;
36185;SDS011;22228;53.222;7.446;2022-11-15T10:50:43;18.77;;;16.53;;
36185;SDS011;22228;53.222;7.446;2022-11-15T10:53:10;23.80;;;18.57;;
36185;SDS011;22228;53.222;7.446;2022-11-15T10:58:31;19.40;;;17.43;;
36185;SDS011;22228;53.222;7.446;2022-11-15T11:01:11;20.07;;;17.93;;
36185;SDS011;22228;53.222;7.446;2022-11-15T11:04:03;20.37;;;18.30;;
36185;SDS011;22228;53.222;7.446;2022-11-15T11:06:28;20.67;;;18.50;;
36185;SDS011;22228;53.222;7.446;2022-11-15T11:09:01;23.03;;;20.53;;
36185;SDS011;22228;53.222;7.446;2022-11-15T11:11:25;19.93;;;17.83;;
36185;SDS011;22228;53.222;7.446;2022-11-15T11:14:11;23.37;;;18.67;;
36185;SDS011;22228;53.222;7.446;2022-11-15T11:16:37;19.83;;;17.73;;
36185;SDS011;22228;53.222;7.446;2022-11-15T11:19:11;20.67;;;18.23;;
36185;SDS011;22228;53.222;7.446;2022-11-15T11:21:54;18.83;;;16.87;;
36185;SDS011;22228;53.222;7.446;2022-11-15T11:24:41;19.23;;;17.37;;
36185;SDS011;22228;53.222;7.446;2022-11-15T11:27:13;17.53;;;15.73;;
36185;SDS011;22228;53.222;7.446;2022-11-15T11:30:09;18.33;;;16.60;;
36185;SDS011;22228;53.222;7.446;2022-11-15T11:32:49;16.93;;;15.23;;
36185;SDS011;22228;53.222;7.446;2022-11-15T11:35:24;19.30;;;15.23;;
36185;SDS011;22228;53.222;7.446;2022-11-15T11:37:52;17.47;;;15.90;;
36185;SDS011;22228;53.222;7.446;2022-11-15T11:40:27;19.00;;;16.03;;
36185;SDS011;22228;53.222;7.446;2022-11-15T11:42:52;17.00;;;15.40;;
36185;SDS011;22228;53.222;7.446;2022-11-15T11:48:21;17.20;;;15.50;;
36185;SDS011;22228;53.222;7.446;2022-11-15T11:54:42;15.97;;;14.47;;
36185;SDS011;22228;53.222;7.446;2022-11-15T11:57:12;15.83;;;14.33;;
36185;SDS011;22228;53.222;7.446;2022-11-15T12:00:14;17.50;;;15.83;;
36185;SDS011;22228;53.222;7.446;2022-11-15T12:02:41;17.57;;;15.77;;
36185;SDS011;22228;53.222;7.446;2022-11-15T12:05:30;17.30;;;15.63;;
36185;SDS011;22228;53.222;7.446;2022-11-15T12:10:56;17.27;;;15.67;;
36185;SDS011;22228;53.222;7.446;2022-11-15T12:13:24;17.57;;;15.83;;
36185;SDS011;22228;53.222;7.446;2022-11-15T12:15:53;16.87;;;15.30;;
36185;SDS011;22228;53.222;7.446;2022-11-15T12:18:20;17.80;;;16.17;;
36185;SDS011;22228;53.222;7.446;2022-11-15T12:21:13;18.80;;;17.10;;
36185;SDS011;22228;53.222;7.446;2022-11-15T12:24:05;17.03;;;15.63;;
36185;SDS011;22228;53.222;7.446;2022-11-15T12:26:31;17.90;;;16.10;;
36185;SDS011;22228;53.222;7.446;2022-11-15T12:29:00;17.60;;;16.10;;
36185;SDS011;22228;53.222;7.446;2022-11-15T12:31:29;15.43;;;14.23;;
36185;SDS011;22228;53.222;7.446;2022-11-15T12:34:04;15.17;;;13.93;;
36185;SDS011;22228;53.222;7.446;2022-11-15T12:36:40;14.87;;;13.57;;
36185;SDS011;22228;53.222;7.446;2022-11-15T12:39:06;14.47;;;13.23;;
36185;SDS011;22228;53.222;7.446;2022-11-15T12:41:37;13.43;;;12.23;;
36185;SDS011;22228;53.222;7.446;2022-11-15T12:44:00;12.83;;;11.83;;
36185;SDS011;22228;53.222;7.446;2022-11-15T12:46:58;12.43;;;11.33;;
36185;SDS011;22228;53.222;7.446;2022-11-15T12:52:07;11.27;;;10.37;;
36185;SDS011;22228;53.222;7.446;2022-11-15T13:15:38;3.50;;;3.20;;
36185;SDS011;22228;53.222;7.446;2022-11-15T13:18:31;3.50;;;3.20;;
36185;SDS011;22228;53.222;7.446;2022-11-15T13:20:59;4.03;;;2.63;;
36185;SDS011;22228;53.222;7.446;2022-11-15T13:23:41;2.70;;;2.50;;
36185;SDS011;22228;53.222;7.446;2022-11-15T13:26:12;2.63;;;2.20;;
36185;SDS011;22228;53.222;7.446;2022-11-15T13:28:38;2.23;;;2.07;;
36185;SDS011;22228;53.222;7.446;2022-11-15T13:31:21;3.40;;;2.10;;
36185;SDS011;22228;53.222;7.446;2022-11-15T13:34:27;1.73;;;1.57;;
36185;SDS011;22228;53.222;7.446;2022-11-15T13:36:54;1.70;;;1.60;;
36185;SDS011;22228;53.222;7.446;2022-11-15T13:39:25;2.13;;;1.90;;
36185;SDS011;22228;53.222;7.446;2022-11-15T13:41:48;2.80;;;2.13;;
36185;SDS011;22228;53.222;7.446;2022-11-15T13:44:18;1.80;;;1.70;;
36185;SDS011;22228;53.222;7.446;2022-11-15T13:49:56;2.33;;;1.63;;
36185;SDS011;22228;53.222;7.446;2022-11-15T13:52:27;2.00;;;1.80;;
36185;SDS011;22228;53.222;7.446;2022-11-15T13:54:54;2.40;;;2.30;;
36185;SDS011;22228;53.222;7.446;2022-11-15T13:57:19;3.70;;;3.40;;
36185;SDS011;22228;53.222;7.446;2022-11-15T14:02:54;3.30;;;3.00;;
36185;SDS011;22228;53.222;7.446;2022-11-15T14:05:19;4.17;;;3.77;;
36185;SDS011;22228;53.222;7.446;2022-11-15T14:07:52;3.77;;;3.40;;
36185;SDS011;22228;53.222;7.446;2022-11-15T14:13:00;2.93;;;2.73;;
36185;SDS011;22228;53.222;7.446;2022-11-15T14:15:28;2.87;;;2.67;;
36185;SDS011;22228;53.222;7.446;2022-11-15T14:17:56;2.83;;;1.67;;
36185;SDS011;22228;53.222;7.446;2022-11-15T14:20:30;2.00;;;1.90;;
36185;SDS011;22228;53.222;7.446;2022-11-15T14:23:24;2.70;;;2.20;;
36185;SDS011;22228;53.222;7.446;2022-11-15T14:26:27;2.97;;;1.97;;
36185;SDS011;22228;53.222;7.446;2022-11-15T14:28:51;2.50;;;2.30;;
36185;SDS011;22228;53.222;7.446;2022-11-15T14:31:14;2.43;;;1.97;;
36185;SDS011;22228;53.222;7.446;2022-11-15T14:33:40;1.50;;;1.40;;
36185;SDS011;22228;53.222;7.446;2022-11-15T14:36:10;1.70;;;1.60;;
36185;SDS011;22228;53.222;7.446;2022-11-15T14:38:39;1.50;;;1.40;;
36185;SDS011;22228;53.222;7.446;2022-11-15T14:41:01;2.70;;;2.00;;
36185;SDS011;22228;53.222;7.446;2022-11-15T14:43:49;2.60;;;1.60;;
36185;SDS011;22228;53.222;7.446;2022-11-15T14:46:14;1.97;;;1.67;;
36185;SDS011;22228;53.222;7.446;2022-11-15T14:48:36;1.60;;;1.50;;
36185;SDS011;22228;53.222;7.446;2022-11-15T14:50:58;2.23;;;1.83;;
36185;SDS011;22228;53.222;7.446;2022-11-15T14:56:14;2.50;;;2.27;;
36185;SDS011;22228;53.222;7.446;2022-11-15T14:58:36;2.67;;;2.47;;
36185;SDS011;22228;53.222;7.446;2022-11-15T15:00:57;2.70;;;2.50;;
36185;SDS011;22228;53.222;7.446;2022-11-15T15:03:20;2.83;;;2.73;;
36185;SDS011;22228;53.222;7.446;2022-11-15T15:06:10;4.27;;;3.40;;
36185;SDS011;22228;53.222;7.446;2022-11-15T15:08:33;2.70;;;2.60;;
36185;SDS011;22228;53.222;7.446;2022-11-15T15:10:54;3.50;;;3.20;;
36185;SDS011;22228;53.222;7.446;2022-11-15T15:13:16;3.53;;;3.33;;
36185;SDS011;22228;53.222;7.446;2022-11-15T15:15:39;3.00;;;2.90;;
36185;SDS011;22228;53.222;7.446;2022-11-15T15:17:59;2.93;;;2.73;;
36185;SDS011;22228;53.222;7.446;2022-11-15T15:20:29;3.53;;;3.33;;
36185;SDS011;22228;53.222;7.446;2022-11-15T15:22:50;3.13;;;2.90;;
36185;SDS011;22228;53.222;7.446;2022-11-15T15:25:18;3.80;;;3.60;;
36185;SDS011;22228;53.222;7.446;2022-11-15T15:27:58;3.63;;;3.33;;
36185;SDS011;22228;53.222;7.446;2022-11-15T15:30:19;4.00;;;3.70;;
36185;SDS011;22228;53.222;7.446;2022-11-15T15:32:41;4.67;;;3.67;;
36185;SDS011;22228;53.222;7.446;2022-11-15T15:35:01;3.90;;;3.70;;
36185;SDS011;22228;53.222;7.446;2022-11-15T15:37:24;3.83;;;3.53;;
36185;SDS011;22228;53.222;7.446;2022-11-15T15:39:46;4.53;;;4.13;;
36185;SDS011;22228;53.222;7.446;2022-11-15T15:42:06;4.80;;;4.53;;
36185;SDS011;22228;53.222;7.446;2022-11-15T15:44:27;4.67;;;4.30;;
36185;SDS011;22228;53.222;7.446;2022-11-15T15:46:47;4.70;;;4.37;;
36185;SDS011;22228;53.222;7.446;2022-11-15T15:49:08;4.50;;;4.10;;
36185;SDS011;22228;53.222;7.446;2022-11-15T15:51:29;4.57;;;4.37;;
36185;SDS011;22228;53.222;7.446;2022-11-15T15:53:52;5.47;;;5.07;;
36185;SDS011;22228;53.222;7.446;2022-11-15T15:56:16;4.90;;;4.63;;
36185;SDS011;22228;53.222;7.446;2022-11-15T15:58:36;5.67;;;5.30;;
36185;SDS011;22228;53.222;7.446;2022-11-15T16:00:57;6.37;;;5.87;;
36185;SDS011;22228;53.222;7.446;2022-11-15T16:03:18;6.03;;;5.63;;
36185;SDS011;22228;53.222;7.446;2022-11-15T16:05:38;6.37;;;5.87;;
36185;SDS011;22228;53.222;7.446;2022-11-15T16:07:59;6.73;;;6.13;;
36185;SDS011;22228;53.222;7.446;2022-11-15T16:10:22;7.27;;;6.63;;
36185;SDS011;22228;53.222;7.446;2022-11-15T16:12:44;6.60;;;6.00;;
36185;SDS011;22228;53.222;7.446;2022-11-15T16:15:05;6.93;;;6.33;;
36185;SDS011;22228;53.222;7.446;2022-11-15T16:17:30;7.13;;;6.53;;
36185;SDS011;22228;53.222;7.446;2022-11-15T16:19:59;7.67;;;7.07;;
36185;SDS011;22228;53.222;7.446;2022-11-15T16:22:20;7.70;;;7.20;;
36185;SDS011;22228;53.222;7.446;2022-11-15T16:24:43;7.47;;;6.77;;
36185;SDS011;22228;53.222;7.446;2022-11-15T16:27:05;7.37;;;6.77;;
36185;SDS011;22228;53.222;7.446;2022-11-15T16:29:30;8.20;;;7.07;;
36185;SDS011;22228;53.222;7.446;2022-11-15T16:31:51;8.40;;;7.80;;
36185;SDS011;22228;53.222;7.446;2022-11-15T16:34:11;8.57;;;7.80;;
36185;SDS011;22228;53.222;7.446;2022-11-15T16:36:32;7.87;;;7.27;;
36185;SDS011;22228;53.222;7.446;2022-11-15T16:38:54;7.07;;;6.53;;
36185;SDS011;22228;53.222;7.446;2022-11-15T16:41:15;7.07;;;6.57;;
36185;SDS011;22228;53.222;7.446;2022-11-15T16:43:38;7.03;;;6.43;;
36185;SDS011;22228;53.222;7.446;2022-11-15T16:45:59;7.00;;;6.50;;
36185;SDS011;22228;53.222;7.446;2022-11-15T16:48:27;7.20;;;6.70;;
36185;SDS011;22228;53.222;7.446;2022-11-15T16:50:47;7.63;;;6.87;;
36185;SDS011;22228;53.222;7.446;2022-11-15T16:53:08;7.80;;;7.20;;
36185;SDS011;22228;53.222;7.446;2022-11-15T16:55:28;7.37;;;6.87;;
36185;SDS011;22228;53.222;7.446;2022-11-15T16:57:49;7.97;;;7.27;;
36185;SDS011;22228;53.222;7.446;2022-11-15T17:00:12;7.47;;;6.90;;
36185;SDS011;22228;53.222;7.446;2022-11-15T17:02:34;7.90;;;7.37;;
36185;SDS011;22228;53.222;7.446;2022-11-15T17:04:55;8.17;;;7.37;;
36185;SDS011;22228;53.222;7.446;2022-11-15T17:07:16;8.17;;;7.57;;
36185;SDS011;22228;53.222;7.446;2022-11-15T17:09:37;8.80;;;8.10;;
36185;SDS011;22228;53.222;7.446;2022-11-15T17:11:57;9.03;;;8.17;;